Startpagina
METAR-TAF:

METAR-TAF

Vliegvelden :

Funchal, Madeira, Portugal

Aeroporto da Madeira

breedte: 32-41-52N, lengte: 016-46-28W, hoogte: 59 m

Actueel weer

Dit bericht is 22 minuten geleden gemaakt, om 15:00 UTC
Wind 15 kt uit het noordnoordoosten
Temperatuur 22°C
Vochtigheid 78%
Druk 1020 hPa
Zicht 10 km of meer
Gebroken wolken op 1300 ft
buien in de omgeving

METAR: LPMA 221500Z 03015KT 9999 VCSH BKN013 22/18 Q1020

Tijdstip: 16:22 (15:22 UTC)

Verwachting

Dit bericht is 4 uur en het 22 minuten geleden gemaakt, om 11:00 UTC
Verwachting geldig van 22 om 12 UTC tot 23 om 12 UTC
Wind 15 kt uit het noordnoordoosten
Zicht 10 km of meer
Verspreide wolken op 1500 ft
Kans 40% :
Tijdelijke
van 22 om 12 UTC tot 22 om 18 UTC
Zicht: 6000 m
Gebroken wolken op 1500 ft
lichte regen

TAF: LPMA 221100Z 2212/2312 03015KT 9999 SCT015 PROB40 TEMPO 2212/2218 6000 -RA BKN015

Waarnemingen en weersverwachtingen van meer dan 4000 vliegvelden (METAR en TAF).

De beschikbare stations zijn de gele en rode punten op de kaart.

Ga met uw muis naar het station om de naam te zien.

Klik dan om waarnemingen en weersverwachtingen te zien.

kaart wijzigen: klik op de groene knoppen met een zwart kruis om in te zoomen, op de groene knop met een streepje om uit te zoomen of op de groene pijlen voor aangrenzende kaarten.


METAR-TAF: